Norderney, Germany

9:12 AM CEST on July 30, 2016 (GMT +0200)
Mainstraße | | Change Station

Elev 16 ft 53.71 °N, 7.17 °E | Updated 4 minutes ago

Partly Cloudy
Partly Cloudy
65.3 °F
Feels Like 65.3 °F
N
5.0
Wind Variable Wind from NW
Gusts 8.7 mph

Today
High -- | Low -- °F
--% Chance of Precip.
Yesterday
High -- | Low -- °F
Precip. -- in
Pressure 29.83 in
Visibility 6.2 miles
Clouds Few 900 ft
Dew Point 63 °F
Humidity 91%
Rainfall 0.37 in
Snow Depth Not available.
5:43 AM 9:31 PM
Waning Crescent, 15% visible
METAR EHGG 300655Z AUTO 26005KT 230V290 9999 FEW009 18/16 Q1010 TEMPO BKN010
Pressure 29.83 in
Visibility 6.2 miles
Clouds Few 900 ft
Dew Point 63 °F
Humidity 91%
Rainfall 0.37 in
Snow Depth Not available.
5:43 AM 9:31 PM
Waning Crescent, 15% visible
METAR EHGG 300655Z AUTO 26005KT 230V290 9999 FEW009 18/16 Q1010 TEMPO BKN010

10-Day Weather Forecast

×

Almanac

Astronomy

Jul. 30, 2016 Rise Set
Actual Time
Civil Twilight
Nautical Twilight
Astronomical Twilight
Moon
Length of Visible Light
Length of Day
Tomorrow will be .
, % of the Moon is Illuminated

Today's Extremes

Country Highs Country Lows

Community

WunderPhotos

Upload Photos

1,928,508 photos uploaded!

WunderBlog® & News

Nearby

Air Quality

  Air Quality AQ Index Pollutant
Not available.

Snow Depth

Station Depth Elevation

Earthquake Activity

City Distance Mag. Time & Date
Minimum magnitude displayed is 2.5.

Coastal Water Temperatures

Place Temperature

Stations

Nearby Weather Stations

Station Location Temp. Windchill Dew Point Humidity Wind Precip. Elev Updated Type